East Hickory, Pennsylvania
Current Conditions -  °F | °C
As of 3:15 AM on Monday 24 Nov 2014 (Local Time) from KFKL Reporting Station
Overcast Overcast  
Wind Chill: 11°   Ceiling: 4500
Heat Index: 11°   Visibility: 10mi
Dew Point:   Wind: 20mph
Humidity: 82%   Direction: 150°SSE
Pressure: 29.38"   Gusts: 30mph
Location:  41.58°N, 79.4°W
Report Text: KFKL 240815Z AUTO 15017G26KT 10SM SCT039 BKN045 OVC075 11/08 A2938 RMK AO1
Loading
Personal Weather Stations






























Interactive Weather Map New forecast layout! Learn more

10-Day Weather Forecast

Advertisements
Track Severe Weather on mobile